Time;durP1;ratioP1;P1;durP2;ratioP2;P2;SDS_P1;SDS_P2;PMS_P1;PMS_P2;Temp;Humidity;BMP_temperature;BMP_pressure;BME280_temperature;BME280_humidity;BME280_pressure;Samples;Min_cycle;Max_cycle;Signal;HPM_P1;HPM_P2
2021/08/26 00:06:39;;;;;;;3.78;0.52;;;16.30;99.90;;;;;;4998043;28;20549;-68
2021/08/26 00:09:04;;;;;;;2.10;0.75;;;16.30;99.90;;;;;;5000364;28;20038;-68
2021/08/26 00:11:32;;;;;;;2.75;0.30;;;16.30;99.90;;;;;;4998986;28;20093;-68
2021/08/26 00:13:58;;;;;;;3.63;0.50;;;16.30;99.90;;;;;;5001414;28;20038;-68
2021/08/26 00:16:25;;;;;;;9.88;0.77;;;16.30;99.90;;;;;;4999526;28;20084;-68
2021/08/26 00:18:51;;;;;;;1.95;0.43;;;16.40;99.90;;;;;;4981583;28;20113;-68
2021/08/26 00:21:17;;;;;;;4.30;0.85;;;16.30;99.90;;;;;;4998841;28;20073;-68
2021/08/26 00:23:43;;;;;;;1.67;0.38;;;16.30;99.90;;;;;;4979890;28;20390;-67
2021/08/26 00:26:09;;;;;;;4.35;0.47;;;16.30;99.90;;;;;;5000085;28;20045;-68
2021/08/26 00:28:35;;;;;;;2.22;0.65;;;16.30;99.90;;;;;;4998363;28;20069;-68
2021/08/26 00:31:01;;;;;;;3.05;0.80;;;16.40;99.90;;;;;;5000395;28;20073;-67
2021/08/26 00:33:27;;;;;;;5.35;0.70;;;16.40;99.90;;;;;;4999487;28;20088;-68
2021/08/26 00:35:52;;;;;;;1.50;0.50;;;16.30;99.90;;;;;;4998503;28;20461;-68
2021/08/26 00:38:20;;;;;;;3.65;0.65;;;16.40;99.90;;;;;;5000501;28;20037;-68
2021/08/26 00:40:46;;;;;;;2.92;1.38;;;16.40;99.90;;;;;;5001074;28;20038;-68
2021/08/26 00:43:13;;;;;;;2.47;0.70;;;16.30;99.90;;;;;;4996950;28;20544;-68
2021/08/26 00:45:39;;;;;;;3.42;0.90;;;16.30;99.90;;;;;;5001526;28;20034;-68
2021/08/26 00:48:07;;;;;;;6.22;1.00;;;16.40;99.90;;;;;;5001086;28;20481;-69
2021/08/26 00:50:32;;;;;;;5.50;1.13;;;16.30;99.90;;;;;;4998370;28;20034;-68
2021/08/26 00:52:58;;;;;;;6.05;0.90;;;16.30;99.90;;;;;;4999290;28;20092;-68
2021/08/26 00:55:24;;;;;;;2.78;0.65;;;16.30;99.90;;;;;;4999253;28;20070;-68
2021/08/26 00:57:49;;;;;;;4.38;0.65;;;16.40;99.90;;;;;;4981114;28;20027;-68
2021/08/26 01:00:16;;;;;;;4.85;0.93;;;16.40;99.90;;;;;;5000058;28;20026;-68
2021/08/26 01:02:50;;;;;;;2.90;1.25;;;16.40;99.90;;;;;;4980035;28;20671;-66
2021/08/26 01:05:35;;;;;;;4.63;0.68;;;16.40;99.90;;;;;;4982223;28;20038;-68
2021/08/26 01:08:16;;;;;;;6.55;1.10;;;16.40;99.90;;;;;;5000055;28;20030;-68
2021/08/26 01:10:49;;;;;;;14.85;1.45;;;16.40;99.90;;;;;;5000137;28;20154;-68
2021/08/26 01:13:15;;;;;;;2.92;0.70;;;16.40;99.90;;;;;;5003492;28;20081;-68
2021/08/26 01:16:18;;;;;;;4.13;0.70;;;16.40;99.90;;;;;;5000853;28;20062;-68
2021/08/26 01:18:46;;;;;;;5.20;1.52;;;16.40;99.90;;;;;;5004133;28;20437;-66
2021/08/26 01:21:14;;;;;;;4.57;1.05;;;16.30;99.90;;;;;;5001550;28;20089;-67
2021/08/26 01:23:43;;;;;;;9.25;1.20;;;16.40;99.90;;;;;;5018883;28;20057;-67
2021/08/26 01:26:23;;;;;;;4.32;1.38;;;16.40;99.90;;;;;;5000325;28;20505;-68
2021/08/26 01:28:54;;;;;;;6.10;1.00;;;16.30;99.90;;;;;;4999564;28;20026;-67
2021/08/26 01:31:21;;;;;;;6.85;1.40;;;16.30;99.90;;;;;;5002529;28;20494;-67
2021/08/26 01:33:54;;;;;;;11.30;1.63;;;16.30;99.90;;;;;;5001677;28;20039;-68
2021/08/26 01:36:22;;;;;;;6.85;1.45;;;16.30;99.90;;;;;;5002550;28;20041;-68
2021/08/26 01:38:50;;;;;;;6.47;1.27;;;16.30;99.90;;;;;;5001592;28;20122;-66
2021/08/26 01:41:16;;;;;;;8.88;1.30;;;16.30;99.90;;;;;;5005431;28;20065;-68
2021/08/26 01:43:47;;;;;;;8.65;1.52;;;16.30;99.90;;;;;;4999353;28;20439;-68
2021/08/26 01:46:17;;;;;;;5.95;1.10;;;16.30;99.90;;;;;;5003136;28;20042;-68
2021/08/26 01:48:44;;;;;;;9.63;1.48;;;16.30;99.90;;;;;;5001175;28;20097;-67
2021/08/26 01:51:11;;;;;;;9.52;1.50;;;16.30;99.90;;;;;;5003222;28;20026;-67
2021/08/26 01:53:36;;;;;;;4.63;0.93;;;16.20;99.90;;;;;;4999454;28;20033;-66
2021/08/26 01:56:03;;;;;;;9.40;1.52;;;16.20;99.90;;;;;;4999563;28;20432;-67
2021/08/26 01:58:28;;;;;;;9.68;1.30;;;16.20;99.90;;;;;;5003124;28;20557;-67
2021/08/26 02:00:54;;;;;;;5.47;1.10;;;16.20;99.90;;;;;;5000814;28;20117;-68
2021/08/26 02:03:19;;;;;;;8.68;2.20;;;16.20;99.90;;;;;;5001809;28;20034;-67
2021/08/26 02:05:45;;;;;;;9.10;1.55;;;16.30;99.90;;;;;;5001270;28;20036;-67
2021/08/26 02:08:10;;;;;;;9.00;1.58;;;16.30;99.90;;;;;;4999943;28;20030;-67
2021/08/26 02:10:36;;;;;;;6.95;1.50;;;16.30;99.90;;;;;;5003415;28;20034;-68
2021/08/26 02:13:02;;;;;;;7.38;1.73;;;16.20;99.90;;;;;;4999417;28;20580;-68
2021/08/26 02:15:27;;;;;;;4.25;1.55;;;16.20;99.90;;;;;;5002883;28;20034;-67
2021/08/26 02:17:53;;;;;;;9.57;1.83;;;16.20;99.90;;;;;;4983518;28;20022;-68
2021/08/26 02:20:18;;;;;;;4.50;1.35;;;16.20;99.90;;;;;;4983694;28;20026;-68
2021/08/26 02:22:44;;;;;;;6.30;1.15;;;16.20;99.90;;;;;;5000439;28;20117;-68
2021/08/26 02:25:10;;;;;;;13.75;2.95;;;16.20;99.90;;;;;;5002363;28;20037;-68
2021/08/26 02:27:36;;;;;;;12.95;2.15;;;16.20;99.90;;;;;;4999655;28;20038;-67
2021/08/26 02:30:04;;;;;;;11.98;1.63;;;16.10;99.90;;;;;;5002741;28;20045;-67
2021/08/26 02:32:29;;;;;;;17.83;3.17;;;16.20;99.90;;;;;;5002466;28;20026;-67
2021/08/26 02:34:59;;;;;;;6.78;1.40;;;16.20;99.90;;;;;;4999712;28;20089;-68
2021/08/26 02:37:25;;;;;;;8.55;1.85;;;16.10;99.90;;;;;;4984317;28;20050;-68
2021/08/26 02:39:51;;;;;;;10.32;1.67;;;16.10;99.90;;;;;;5001446;28;20034;-68
2021/08/26 02:42:16;;;;;;;4.78;1.45;;;16.10;99.90;;;;;;5000024;28;20438;-67
2021/08/26 02:44:42;;;;;;;6.72;1.52;;;16.10;99.90;;;;;;4998022;28;20486;-68
2021/08/26 02:47:07;;;;;;;10.27;1.63;;;16.10;99.90;;;;;;5001512;28;20030;-68
2021/08/26 02:49:33;;;;;;;14.88;2.40;;;16.10;99.90;;;;;;5006777;28;20191;-68
2021/08/26 02:51:58;;;;;;;15.63;2.40;;;16.00;99.90;;;;;;4998495;28;20042;-68
2021/08/26 02:54:24;;;;;;;11.25;1.67;;;16.00;99.90;;;;;;5001766;28;20040;-68
2021/08/26 02:56:50;;;;;;;6.60;1.58;;;16.00;99.90;;;;;;5000256;28;20076;-68
2021/08/26 02:59:15;;;;;;;10.07;1.55;;;16.00;99.90;;;;;;4999697;28;20074;-68
2021/08/26 03:01:41;;;;;;;12.13;1.60;;;16.00;99.90;;;;;;5000653;28;20044;-67
2021/08/26 03:04:06;;;;;;;9.60;1.42;;;16.10;99.90;;;;;;4998276;28;20030;-67
2021/08/26 03:06:32;;;;;;;8.88;1.40;;;16.00;99.90;;;;;;5001410;28;20049;-68
2021/08/26 03:08:57;;;;;;;9.57;1.27;;;16.00;99.90;;;;;;4997642;28;20375;-67
2021/08/26 03:11:23;;;;;;;11.30;1.77;;;16.00;99.90;;;;;;4999057;28;20034;-68
2021/08/26 03:13:48;;;;;;;14.15;3.28;;;16.00;99.90;;;;;;5000668;28;20070;-68
2021/08/26 03:16:14;;;;;;;6.18;1.27;;;16.00;99.90;;;;;;4999922;28;20034;-68
2021/08/26 03:18:40;;;;;;;7.63;1.48;;;15.90;99.90;;;;;;5001675;28;20033;-67
2021/08/26 03:21:05;;;;;;;11.32;1.83;;;15.90;99.90;;;;;;5000975;28;20037;-68
2021/08/26 03:23:31;;;;;;;13.05;1.52;;;15.90;99.90;;;;;;4998337;28;20041;-68
2021/08/26 03:25:57;;;;;;;8.10;1.83;;;15.90;99.90;;;;;;5001323;28;20402;-67
2021/08/26 03:28:22;;;;;;;7.15;1.42;;;15.90;99.90;;;;;;4998895;28;20034;-68
2021/08/26 03:30:48;;;;;;;15.63;2.28;;;15.90;99.90;;;;;;5001546;28;20479;-68
2021/08/26 03:33:13;;;;;;;6.47;1.70;;;15.90;99.90;;;;;;4981989;28;20037;-68
2021/08/26 03:35:39;;;;;;;6.75;1.50;;;15.80;99.90;;;;;;4999243;28;20057;-68
2021/08/26 03:38:05;;;;;;;10.60;1.58;;;15.80;99.90;;;;;;5000807;28;20435;-66
2021/08/26 03:40:31;;;;;;;14.50;2.13;;;15.80;99.90;;;;;;5002685;28;20413;-68
2021/08/26 03:42:57;;;;;;;11.38;1.75;;;15.80;99.90;;;;;;4998521;28;20042;-67
2021/08/26 03:45:22;;;;;;;5.63;1.58;;;15.80;99.90;;;;;;5000270;28;20832;-68
2021/08/26 03:47:48;;;;;;;10.75;1.90;;;15.80;99.90;;;;;;4981244;28;20026;-68
2021/08/26 03:50:14;;;;;;;10.73;1.50;;;15.80;99.90;;;;;;4999714;28;20035;-67
2021/08/26 03:52:39;;;;;;;11.07;1.25;;;15.80;99.90;;;;;;5000088;28;20033;-67
2021/08/26 03:55:06;;;;;;;6.60;1.35;;;15.80;99.90;;;;;;4998523;28;20103;-70
2021/08/26 03:57:32;;;;;;;14.95;1.63;;;15.80;99.90;;;;;;5001125;28;20034;-68
2021/08/26 03:59:58;;;;;;;7.28;1.02;;;15.80;99.90;;;;;;4997955;28;20770;-68
2021/08/26 04:02:23;;;;;;;9.07;1.25;;;15.80;99.90;;;;;;4997864;28;20066;-68
2021/08/26 04:04:49;;;;;;;4.43;1.20;;;15.80;99.90;;;;;;5000704;28;20033;-68
2021/08/26 04:07:17;;;;;;;9.45;1.30;;;15.80;99.90;;;;;;4997984;28;20041;-68
2021/08/26 04:09:44;;;;;;;8.35;1.75;;;15.80;99.90;;;;;;4995461;28;20026;-68
2021/08/26 04:12:10;;;;;;;10.85;1.67;;;15.80;99.90;;;;;;4998643;28;20030;-67
2021/08/26 04:14:36;;;;;;;4.90;0.85;;;15.80;99.90;;;;;;4998257;28;20033;-68
2021/08/26 04:17:01;;;;;;;12.57;1.85;;;15.80;99.90;;;;;;5000280;28;20076;-68
2021/08/26 04:19:27;;;;;;;13.45;2.05;;;15.80;99.90;;;;;;5000026;28;20022;-68
2021/08/26 04:21:52;;;;;;;7.13;1.15;;;15.80;99.90;;;;;;4979789;28;20041;-68
2021/08/26 04:24:18;;;;;;;7.05;1.00;;;15.80;99.90;;;;;;4998825;28;20597;-68
2021/08/26 04:26:43;;;;;;;7.13;1.55;;;15.80;99.90;;;;;;4999741;28;20113;-68
2021/08/26 04:29:09;;;;;;;4.22;0.70;;;15.80;99.90;;;;;;4999722;28;20045;-68
2021/08/26 04:31:35;;;;;;;9.02;1.17;;;15.80;99.90;;;;;;4980586;28;20081;-68
2021/08/26 04:34:01;;;;;;;4.68;1.20;;;15.70;99.90;;;;;;5000475;28;20038;-68
2021/08/26 04:36:27;;;;;;;10.38;1.48;;;15.80;99.90;;;;;;4996953;28;20042;-68
2021/08/26 04:38:52;;;;;;;8.93;1.95;;;15.80;99.90;;;;;;4998012;28;20050;-67
2021/08/26 04:41:18;;;;;;;7.57;1.33;;;15.80;99.90;;;;;;5005406;28;20096;-68
2021/08/26 04:43:44;;;;;;;5.57;0.88;;;15.80;99.90;;;;;;4983666;28;20313;-67
2021/08/26 04:46:09;;;;;;;10.70;1.55;;;15.80;99.90;;;;;;4998575;28;20117;-68
2021/08/26 04:48:35;;;;;;;5.45;0.70;;;15.80;99.90;;;;;;5016306;28;20037;-68
2021/08/26 04:51:00;;;;;;;5.43;1.63;;;15.80;99.90;;;;;;4984074;28;20412;-68
2021/08/26 04:53:26;;;;;;;9.52;1.45;;;15.80;99.90;;;;;;5004165;28;20140;-68
2021/08/26 04:55:51;;;;;;;7.57;0.80;;;15.80;99.90;;;;;;5000856;28;20097;-66
2021/08/26 04:58:17;;;;;;;5.07;1.02;;;15.80;99.90;;;;;;5003848;28;20041;-68
2021/08/26 05:00:42;;;;;;;5.38;1.23;;;15.80;99.90;;;;;;5004424;28;21602;-68
2021/08/26 05:03:08;;;;;;;10.35;1.25;;;15.80;99.90;;;;;;4984950;28;20486;-68
2021/08/26 05:05:34;;;;;;;6.65;1.27;;;15.80;99.90;;;;;;4983627;28;20038;-67
2021/08/26 05:07:59;;;;;;;6.22;1.45;;;15.80;99.90;;;;;;5003550;28;20073;-68
2021/08/26 05:10:25;;;;;;;6.60;1.20;;;15.80;99.90;;;;;;5004167;28;20049;-73
2021/08/26 05:12:50;;;;;;;13.43;1.80;;;15.80;99.90;;;;;;5005841;28;20564;-68
2021/08/26 05:15:16;;;;;;;9.90;1.83;;;15.80;99.90;;;;;;4987202;28;20046;-68
2021/08/26 05:17:42;;;;;;;10.93;1.50;;;15.80;99.90;;;;;;5003939;28;20183;-66
2021/08/26 05:20:08;;;;;;;8.07;0.93;;;15.80;99.90;;;;;;5003808;28;20063;-67
2021/08/26 05:22:33;;;;;;;5.53;0.95;;;15.80;99.90;;;;;;5007271;28;20033;-66
2021/08/26 05:24:59;;;;;;;4.63;0.82;;;15.90;99.90;;;;;;5008060;28;20057;-66
2021/08/26 05:27:24;;;;;;;11.18;1.02;;;15.90;99.90;;;;;;5007128;28;20125;-68
2021/08/26 05:29:51;;;;;;;4.75;0.82;;;15.90;99.90;;;;;;5007935;28;20037;-67
2021/08/26 05:32:16;;;;;;;3.60;0.82;;;15.90;99.90;;;;;;5007762;28;20038;-68
2021/08/26 05:34:42;;;;;;;10.77;1.35;;;15.90;99.90;;;;;;4988228;28;20442;-67
2021/08/26 05:37:09;;;;;;;8.00;1.52;;;15.90;99.90;;;;;;5002666;28;20038;-67
2021/08/26 05:39:34;;;;;;;5.60;1.30;;;15.90;99.90;;;;;;5011163;28;20038;-68
2021/08/26 05:42:00;;;;;;;8.30;1.02;;;15.90;99.90;;;;;;5005583;28;20571;-68
2021/08/26 05:44:26;;;;;;;3.17;0.77;;;16.00;99.90;;;;;;5009417;28;20046;-68
2021/08/26 05:46:52;;;;;;;7.50;1.10;;;16.00;99.90;;;;;;4990965;28;20036;-68
2021/08/26 05:49:19;;;;;;;7.28;1.10;;;16.00;99.90;;;;;;5006097;28;20026;-68
2021/08/26 05:51:44;;;;;;;8.05;1.95;;;16.00;99.90;;;;;;4969267;28;20405;-67
2021/08/26 05:54:10;;;;;;;9.98;1.15;;;16.00;99.90;;;;;;4999093;28;20236;-67
2021/08/26 05:56:36;;;;;;;6.60;0.80;;;16.10;99.90;;;;;;5001554;28;20441;-68
2021/08/26 05:59:02;;;;;;;5.07;1.02;;;16.00;99.90;;;;;;5001558;28;20712;-67
2021/08/26 06:01:29;;;;;;;9.82;0.90;;;16.00;99.90;;;;;;5008961;28;20038;-67
2021/08/26 06:03:55;;;;;;;7.93;1.10;;;16.10;99.90;;;;;;5007600;28;20038;-68
2021/08/26 06:06:21;;;;;;;7.25;1.25;;;16.10;99.90;;;;;;5004204;28;20124;-68
2021/08/26 06:08:48;;;;;;;8.23;1.00;;;16.10;99.90;;;;;;4988100;28;20035;-68
2021/08/26 06:11:14;;;;;;;10.10;1.02;;;16.20;99.90;;;;;;5007804;28;21122;-68
2021/08/26 06:13:39;;;;;;;5.18;1.02;;;16.20;99.90;;;;;;5007586;28;20044;-68
2021/08/26 06:16:05;;;;;;;6.40;1.42;;;16.20;99.90;;;;;;5005388;28;20476;-68
2021/08/26 06:18:31;;;;;;;4.97;1.23;;;16.20;99.90;;;;;;5005419;28;20037;-65
2021/08/26 06:20:57;;;;;;;5.97;0.68;;;16.30;99.90;;;;;;5003271;28;20121;-65
2021/08/26 06:23:22;;;;;;;3.88;0.80;;;16.40;99.90;;;;;;5001521;28;20045;-68
2021/08/26 06:25:48;;;;;;;10.98;1.33;;;16.40;99.90;;;;;;4986872;28;20034;-68
2021/08/26 06:28:13;;;;;;;12.98;1.27;;;16.40;99.90;;;;;;5000942;28;20120;-68
2021/08/26 06:30:39;;;;;;;6.68;0.90;;;16.40;99.90;;;;;;4999779;28;20034;-68
2021/08/26 06:33:05;;;;;;;9.52;1.77;;;16.50;99.90;;;;;;5002695;28;20096;-68
2021/08/26 06:35:31;;;;;;;6.97;1.00;;;16.50;99.90;;;;;;5004211;28;20025;-68
2021/08/26 06:37:57;;;;;;;5.35;1.25;;;16.60;99.90;;;;;;5005987;28;20045;-66
2021/08/26 06:40:23;;;;;;;4.65;1.15;;;16.70;99.90;;;;;;5003169;28;20401;-68
2021/08/26 06:42:48;;;;;;;8.30;1.23;;;16.80;99.90;;;;;;4988556;28;20045;-65
2021/08/26 06:45:14;;;;;;;7.57;0.93;;;16.90;99.90;;;;;;5001717;28;20069;-68
2021/08/26 06:47:40;;;;;;;10.00;0.93;;;17.10;99.90;;;;;;5004034;28;20710;-68
2021/08/26 06:50:06;;;;;;;3.92;1.02;;;17.50;99.90;;;;;;5003321;28;20490;-67
2021/08/26 06:52:31;;;;;;;5.25;0.80;;;17.90;99.90;;;;;;5003667;28;20085;-68
2021/08/26 06:54:57;;;;;;;3.90;1.00;;;18.10;99.90;;;;;;4999461;28;20054;-68
2021/08/26 06:57:24;;;;;;;6.32;0.80;;;18.20;99.90;;;;;;5003362;28;20092;-68
2021/08/26 06:59:49;;;;;;;3.65;0.65;;;18.30;99.90;;;;;;5009238;28;20144;-66
2021/08/26 07:02:15;;;;;;;4.75;0.95;;;18.30;99.90;;;;;;5003796;28;20553;-69
2021/08/26 07:04:40;;;;;;;5.53;1.10;;;18.30;99.90;;;;;;5009674;28;20109;-68
2021/08/26 07:07:06;;;;;;;4.35;0.60;;;18.10;99.90;;;;;;5004581;28;20401;-67
2021/08/26 07:09:32;;;;;;;7.65;0.70;;;18.00;99.90;;;;;;5004791;28;20026;-67
2021/08/26 07:11:57;;;;;;;3.55;0.57;;;17.90;99.90;;;;;;4988903;28;20121;-68
2021/08/26 07:14:23;;;;;;;4.22;0.50;;;17.90;99.90;;;;;;5005511;28;20117;-68
2021/08/26 07:16:48;;;;;;;7.13;0.63;;;18.00;99.90;;;;;;5006486;28;20068;-68
2021/08/26 07:19:14;;;;;;;4.20;0.60;;;18.00;99.90;;;;;;5006097;28;20042;-66
2021/08/26 07:21:41;;;;;;;3.55;0.22;;;17.90;99.90;;;;;;5005954;28;20029;-68
2021/08/26 07:24:06;;;;;;;2.75;0.30;;;17.90;99.90;;;;;;5006201;28;20116;-66
2021/08/26 07:26:32;;;;;;;2.30;0.32;;;18.00;99.90;;;;;;5003493;28;20141;-67
2021/08/26 07:28:58;;;;;;;3.15;0.30;;;18.50;99.90;;;;;;4986413;28;20120;-68
2021/08/26 07:31:23;;;;;;;1.85;0.30;;;18.70;99.90;;;;;;5005394;28;20049;-68
2021/08/26 07:33:49;;;;;;;2.25;0.57;;;18.70;99.90;;;;;;5007540;28;20107;-67
2021/08/26 07:36:15;;;;;;;2.25;0.60;;;18.70;99.90;;;;;;5004749;28;20045;-68
2021/08/26 07:38:40;;;;;;;4.47;0.52;;;18.70;99.90;;;;;;5005166;28;20156;-67
2021/08/26 07:41:06;;;;;;;3.30;0.52;;;18.70;99.90;;;;;;5006741;28;20069;-68
2021/08/26 07:43:33;;;;;;;3.80;1.17;;;18.60;99.90;;;;;;5007084;28;20064;-68
2021/08/26 07:45:58;;;;;;;3.45;0.50;;;18.70;99.90;;;;;;5008166;28;20138;-66
2021/08/26 07:48:24;;;;;;;2.97;0.55;;;18.70;99.90;;;;;;5004846;28;20034;-68
2021/08/26 07:50:53;;;;;;;7.88;0.88;;;18.70;99.90;;;;;;5003946;28;20422;-68
2021/08/26 07:53:19;;;;;;;2.30;0.52;;;18.60;99.90;;;;;;5002217;28;20046;-68
2021/08/26 07:55:45;;;;;;;2.67;0.43;;;18.40;99.90;;;;;;5006534;28;20553;-66
2021/08/26 07:58:10;;;;;;;2.70;0.57;;;18.30;99.90;;;;;;5001890;28;20125;-68
2021/08/26 08:00:36;;;;;;;7.43;1.55;;;18.10;99.90;;;;;;5002026;28;20145;-64
2021/08/26 08:03:02;;;;;;;1.77;0.45;;;18.00;99.90;;;;;;5005888;28;20057;-68
2021/08/26 08:05:28;;;;;;;2.40;0.40;;;17.80;99.90;;;;;;5003648;28;20036;-67
2021/08/26 08:07:53;;;;;;;4.43;0.30;;;17.60;99.90;;;;;;5003252;28;20050;-66
2021/08/26 08:10:19;;;;;;;3.28;0.88;;;17.30;99.90;;;;;;5008326;28;20030;-70
2021/08/26 08:12:44;;;;;;;3.42;0.40;;;17.10;99.90;;;;;;5005625;28;20057;-67
2021/08/26 08:15:10;;;;;;;2.33;0.77;;;17.10;99.90;;;;;;5006181;28;20493;-67
2021/08/26 08:17:36;;;;;;;3.65;0.63;;;17.10;99.90;;;;;;5001207;28;20041;-66
2021/08/26 08:20:04;;;;;;;0.60;0.13;;;17.20;99.90;;;;;;5008873;28;20684;-67
2021/08/26 08:22:29;;;;;;;1.40;0.40;;;17.20;99.90;;;;;;5002749;28;20038;-65
2021/08/26 08:24:55;;;;;;;0.90;0.28;;;17.30;99.90;;;;;;5007552;28;20549;-67
2021/08/26 08:27:21;;;;;;;2.85;0.40;;;17.40;99.90;;;;;;5000693;28;20062;-67
2021/08/26 08:29:47;;;;;;;3.15;0.38;;;17.60;99.90;;;;;;5005359;28;20038;-65
2021/08/26 08:32:13;;;;;;;1.98;0.70;;;17.80;99.90;;;;;;5004219;28;20029;-68
2021/08/26 08:34:38;;;;;;;2.05;0.75;;;18.00;99.90;;;;;;5005379;28;20030;-67
2021/08/26 08:37:04;;;;;;;4.68;0.50;;;18.20;99.90;;;;;;5002009;28;20070;-66
2021/08/26 08:39:30;;;;;;;2.58;0.57;;;18.40;99.90;;;;;;5001834;28;20073;-68
2021/08/26 08:41:55;;;;;;;3.55;0.60;;;18.70;99.90;;;;;;5007226;28;20120;-68
2021/08/26 08:44:21;;;;;;;3.42;0.50;;;18.90;99.90;;;;;;5007972;28;20034;-68
2021/08/26 08:46:54;;;;;;;2.97;0.70;;;19.10;99.90;;;;;;4983614;28;20141;-66
2021/08/26 08:49:21;;;;;;;3.70;0.60;;;19.30;99.90;;;;;;5004556;28;20022;-68
2021/08/26 08:51:49;;;;;;;5.50;1.25;;;19.40;99.90;;;;;;5005524;28;20034;-68
2021/08/26 08:54:15;;;;;;;4.05;0.68;;;19.40;99.90;;;;;;5004884;28;20040;-68
2021/08/26 08:56:40;;;;;;;7.40;1.20;;;19.30;99.90;;;;;;5001722;28;20060;-68
2021/08/26 08:59:06;;;;;;;2.83;0.90;;;19.20;99.90;;;;;;5004777;28;20027;-67
2021/08/26 09:01:32;;;;;;;4.97;0.70;;;19.00;99.90;;;;;;5002498;28;20030;-68
2021/08/26 09:03:57;;;;;;;3.83;0.80;;;18.90;99.90;;;;;;5005140;28;20398;-68
2021/08/26 09:06:38;;;;;;;6.15;1.23;;;18.60;99.90;;;;;;5000733;28;20038;-66
2021/08/26 09:09:06;;;;;;;4.63;0.68;;;18.30;99.90;;;;;;4987629;28;20030;-68
2021/08/26 09:11:32;;;;;;;3.97;0.88;;;18.10;99.90;;;;;;5002129;28;20042;-68
2021/08/26 09:14:08;;;;;;;8.65;0.88;;;18.10;99.90;;;;;;5004142;28;20046;-68
2021/08/26 09:16:36;;;;;;;4.60;0.50;;;18.20;99.90;;;;;;5005384;28;20113;-68
2021/08/26 09:19:23;;;;;;;3.30;0.88;;;18.20;99.90;;;;;;5007114;28;20048;-68
2021/08/26 09:21:50;;;;;;;2.88;0.50;;;18.40;99.90;;;;;;5003174;28;20034;-68
2021/08/26 09:24:16;;;;;;;3.78;0.98;;;18.60;99.90;;;;;;5003716;28;20033;-70
2021/08/26 09:26:47;;;;;;;4.88;0.82;;;18.90;99.90;;;;;;5004105;28;20037;-68
2021/08/26 09:29:14;;;;;;;7.35;0.70;;;19.20;99.90;;;;;;4985022;28;20510;-67
2021/08/26 09:31:40;;;;;;;10.60;1.08;;;19.70;99.90;;;;;;5007561;28;20054;-67
2021/08/26 09:34:15;;;;;;;16.10;1.35;;;20.00;99.90;;;;;;5007795;28;20042;-68
2021/08/26 09:36:47;;;;;;;3.25;0.70;;;20.20;99.90;;;;;;5004347;28;20037;-67
2021/08/26 09:39:15;;;;;;;4.82;0.60;;;20.40;99.90;;;;;;5008309;28;20031;-69
2021/08/26 09:41:45;;;;;;;4.72;1.02;;;20.40;99.90;;;;;;5007422;28;20034;-66
2021/08/26 09:44:16;;;;;;;6.30;1.42;;;20.40;99.90;;;;;;4989184;28;25149;-68
2021/08/26 09:46:42;;;;;;;;;;;20.20;99.90;;;;;;5009636;28;20040;-67
2021/08/26 09:49:11;;;;;;;4.85;0.70;;;20.00;99.90;;;;;;4990746;28;19992;-68
2021/08/26 09:51:38;;;;;;;3.28;0.70;;;19.90;99.90;;;;;;5003469;28;20037;-69
2021/08/26 09:54:14;;;;;;;5.00;0.85;;;19.90;99.90;;;;;;5005299;28;20076;-68
2021/08/26 09:56:44;;;;;;;6.65;1.52;;;19.90;99.90;;;;;;5001055;28;20457;-67
2021/08/26 09:59:09;;;;;;;4.72;0.90;;;19.90;99.90;;;;;;5000351;28;20101;-67
2021/08/26 10:01:38;;;;;;;3.70;1.00;;;19.90;99.90;;;;;;5003986;28;20713;-68
2021/08/26 10:04:23;;;;;;;6.20;1.23;;;19.90;99.90;;;;;;4999242;28;20093;-67
2021/08/26 10:06:49;;;;;;;4.25;1.35;;;19.80;99.90;;;;;;5001148;28;20038;-68
2021/08/26 10:09:14;;;;;;;3.95;0.90;;;19.80;99.90;;;;;;5003556;28;20026;-68
2021/08/26 10:11:40;;;;;;;5.38;0.90;;;19.90;99.90;;;;;;5004086;28;20045;-68
2021/08/26 10:14:06;;;;;;;5.63;1.20;;;20.00;99.90;;;;;;4999018;28;20069;-68
2021/08/26 10:16:31;;;;;;;7.43;1.00;;;20.10;99.90;;;;;;5006587;28;20045;-69
2021/08/26 10:18:57;;;;;;;4.20;1.20;;;20.20;99.90;;;;;;5000621;28;20408;-67
2021/08/26 10:21:23;;;;;;;7.95;1.25;;;20.20;99.90;;;;;;5000218;28;20200;-69
2021/08/26 10:23:48;;;;;;;8.10;1.42;;;20.20;99.90;;;;;;5004703;28;20038;-66
2021/08/26 10:26:17;;;;;;;7.53;1.45;;;20.20;99.90;;;;;;5006434;28;20771;-67
2021/08/26 10:28:44;;;;;;;4.38;0.95;;;20.20;99.90;;;;;;4985669;28;20044;-68
2021/08/26 10:31:27;;;;;;;8.23;1.73;;;20.10;99.90;;;;;;5000960;28;20102;-69
2021/08/26 10:34:07;;;;;;;5.45;1.38;;;20.20;99.90;;;;;;5002528;28;20046;-68
2021/08/26 10:36:43;;;;;;;12.95;1.20;;;20.20;99.90;;;;;;4997321;28;20038;-68
2021/08/26 10:39:41;;;;;;;9.15;1.85;;;20.30;99.90;;;;;;5002039;28;20034;-74
2021/08/26 10:42:23;;;;;;;5.65;1.05;;;20.20;99.90;;;;;;4985873;28;20034;-68
2021/08/26 10:45:20;;;;;;;6.43;0.95;;;20.30;99.90;;;;;;5003126;28;20065;-69
2021/08/26 10:47:49;;;;;;;7.30;1.23;;;20.30;99.90;;;;;;5003817;28;20030;-69
2021/08/26 10:50:20;;;;;;;4.55;1.10;;;20.30;99.90;;;;;;4984917;28;20038;-67
2021/08/26 10:52:58;;;;;;;6.40;1.10;;;20.40;99.90;;;;;;5007708;28;20038;-68
2021/08/26 10:55:45;;;;;;;10.95;1.55;;;20.40;99.90;;;;;;4989206;28;20136;-69
2021/08/26 10:58:22;;;;;;;4.30;1.25;;;20.20;99.90;;;;;;5009612;28;20037;-68
2021/08/26 11:00:55;;;;;;;7.45;1.48;;;20.20;99.90;;;;;;4983846;28;20045;-68
2021/08/26 11:03:37;;;;;;;6.20;1.23;;;20.10;99.90;;;;;;5005250;28;20034;-68
2021/08/26 11:06:28;;;;;;;6.88;1.55;;;20.00;99.90;;;;;;4988924;28;20045;-68
2021/08/26 11:09:01;;;;;;;5.68;1.50;;;19.90;99.90;;;;;;4998542;28;20088;-68
2021/08/26 11:11:29;;;;;;;8.05;2.03;;;19.90;99.90;;;;;;5002678;28;20063;-68
2021/08/26 11:14:07;;;;;;;5.60;0.90;;;19.90;99.90;;;;;;5005086;28;20046;-67
2021/08/26 11:16:35;;;;;;;8.07;1.92;;;20.00;99.90;;;;;;5002550;28;20030;-68
2021/08/26 11:19:07;;;;;;;9.23;1.38;;;20.10;99.90;;;;;;5002750;28;20026;-68
2021/08/26 11:21:43;;;;;;;8.32;1.42;;;20.10;99.90;;;;;;5003023;28;20038;-68
2021/08/26 11:24:14;;;;;;;8.48;1.65;;;20.10;99.90;;;;;;5003604;28;20117;-68
2021/08/26 11:27:15;;;;;;;9.95;1.50;;;20.00;99.90;;;;;;4995556;28;20050;-66
2021/08/26 11:29:41;;;;;;;13.10;2.08;;;19.90;99.90;;;;;;4999650;28;20030;-69
2021/08/26 11:32:11;;;;;;;12.13;1.48;;;20.00;99.90;;;;;;5003285;28;20097;-68
2021/08/26 11:34:52;;;;;;;8.85;1.50;;;20.00;99.90;;;;;;5003331;28;20129;-68
2021/08/26 11:37:19;;;;;;;7.72;1.85;;;20.00;99.90;;;;;;4986603;28;20481;-70
2021/08/26 11:39:49;;;;;;;12.30;2.22;;;20.00;99.90;;;;;;5006133;28;20044;-66
2021/08/26 11:42:17;;;;;;;8.13;1.45;;;20.10;99.90;;;;;;5001692;28;20124;-71
2021/08/26 11:44:44;;;;;;;9.82;1.50;;;20.20;99.90;;;;;;5003891;28;20039;-70
2021/08/26 11:47:10;;;;;;;11.05;1.98;;;20.30;99.90;;;;;;4986428;28;20026;-69
2021/08/26 11:49:37;;;;;;;6.93;1.73;;;20.20;99.90;;;;;;4986801;28;20041;-68
2021/08/26 11:52:08;;;;;;;9.43;1.77;;;19.90;99.90;;;;;;5005339;28;20034;-67
2021/08/26 11:54:39;;;;;;;8.18;1.50;;;19.60;99.90;;;;;;4984597;28;20065;-66
2021/08/26 11:57:06;;;;;;;6.65;1.55;;;19.20;99.90;;;;;;4988621;28;20065;-68
2021/08/26 11:59:34;;;;;;;9.57;1.63;;;19.10;99.90;;;;;;4989469;28;20033;-67
2021/08/26 12:02:19;;;;;;;6.70;1.58;;;18.90;99.90;;;;;;5005413;28;20030;-68
2021/08/26 12:04:46;;;;;;;12.40;1.25;;;19.00;99.90;;;;;;5003851;28;20041;-68
2021/08/26 12:07:24;;;;;;;8.27;1.55;;;19.10;99.90;;;;;;5004691;28;20536;-67
2021/08/26 12:09:50;;;;;;;8.80;1.55;;;19.30;99.90;;;;;;5007857;28;20180;-68
2021/08/26 12:12:16;;;;;;;9.50;1.20;;;19.40;99.90;;;;;;5004886;28;20073;-68
2021/08/26 12:14:41;;;;;;;8.20;1.20;;;19.60;99.90;;;;;;5002364;28;20128;-68
2021/08/26 12:17:19;;;;;;;13.20;1.73;;;19.70;99.90;;;;;;5007471;28;20137;-68
2021/08/26 12:19:46;;;;;;;8.32;1.25;;;19.70;99.90;;;;;;5001650;28;20123;-68
2021/08/26 12:22:17;;;;;;;6.78;1.33;;;19.80;99.90;;;;;;5002035;28;20030;-68
2021/08/26 12:24:55;;;;;;;13.05;1.58;;;19.50;99.90;;;;;;5003777;28;20128;-68
2021/08/26 12:27:21;;;;;;;5.53;1.08;;;19.30;99.90;;;;;;5000927;28;20036;-68
2021/08/26 12:29:49;;;;;;;9.98;1.30;;;19.20;99.90;;;;;;5005515;28;20030;-67
2021/08/26 12:32:28;;;;;;;5.70;0.90;;;19.10;99.90;;;;;;5004230;28;20057;-68
2021/08/26 12:35:11;;;;;;;4.25;0.73;;;19.10;99.90;;;;;;5004861;28;20030;-68
2021/08/26 12:38:01;;;;;;;8.10;1.20;;;19.30;99.90;;;;;;4979572;28;20022;-67
2021/08/26 12:40:30;;;;;;;6.15;1.80;;;19.50;99.90;;;;;;4992571;28;20117;-67
2021/08/26 12:43:06;;;;;;;7.30;1.02;;;19.70;99.90;;;;;;5002604;28;20064;-68
2021/08/26 12:45:36;;;;;;;9.40;1.55;;;19.90;99.90;;;;;;5004121;28;20486;-70
2021/08/26 12:48:24;;;;;;;6.93;1.15;;;20.10;99.90;;;;;;5000688;28;20034;-70
2021/08/26 12:51:08;;;;;;;5.07;1.42;;;20.30;99.90;;;;;;5003600;28;20084;-70
2021/08/26 12:53:34;;;;;;;3.95;1.02;;;20.40;99.90;;;;;;5005447;28;20072;-71
2021/08/26 12:56:03;;;;;;;7.45;1.23;;;20.40;99.90;;;;;;5000535;28;20034;-69